<?xml version="1.0" encoding="UTF-8" standalone="no" ?>
<gpx xmlns="http://www.topografix.com/GPX/1/1" xmlns:xsi="http://www.w3.org/2001/XMLSchema-instance" xsi:schemaLocation="http://www.topografix.com/GPX/1/1 http://www.topografix.com/GPX/1/1/gpx.xsd" version="1.1" creator="VisuGPX - https://www.visugpx.com">
  <metadata>
    <name>Via podiensis Le Puy-Cahors</name>
  </metadata>
  <trk>
    <name><![CDATA[Via podiensis Le Puy-Cahors_7]]></name>
    <trkseg>
      <trkpt lat="44.59095" lon="2.92165">
        <ele>811.37890625</ele>
        <time>2012-06-07T19:02:08Z</time>
      </trkpt>
      <trkpt lat="44.59059" lon="2.9217">
        <ele>801.1328125</ele>
        <time>2012-06-07T19:02:28Z</time>
      </trkpt>
      <trkpt lat="44.59049" lon="2.92156">
        <ele>799.80078125</ele>
        <time>2012-06-07T19:02:48Z</time>
      </trkpt>
      <trkpt lat="44.59038" lon="2.92103">
        <ele>798.8984375</ele>
        <time>2012-06-07T19:03:08Z</time>
      </trkpt>
      <trkpt lat="44.59019" lon="2.92107">
        <ele>795.79296875</ele>
        <time>2012-06-07T19:03:28Z</time>
      </trkpt>
      <trkpt lat="44.58994" lon="2.92134">
        <ele>793.30078125</ele>
        <time>2012-06-07T19:03:48Z</time>
      </trkpt>
      <trkpt lat="44.58976" lon="2.92111">
        <ele>791.95703125</ele>
        <time>2012-06-07T19:04:08Z</time>
      </trkpt>
      <trkpt lat="44.58954" lon="2.92148">
        <ele>792.10546875</ele>
        <time>2012-06-07T19:04:28Z</time>
      </trkpt>
      <trkpt lat="44.58903" lon="2.92141">
        <ele>795.20703125</ele>
        <time>2012-06-07T19:04:48Z</time>
      </trkpt>
      <trkpt lat="44.58881" lon="2.92166">
        <ele>800.6015625</ele>
        <time>2012-06-07T19:05:08Z</time>
      </trkpt>
      <trkpt lat="44.58898" lon="2.92212">
        <ele>803.49609375</ele>
        <time>2012-06-07T19:05:28Z</time>
      </trkpt>
      <trkpt lat="44.58888" lon="2.92227">
        <ele>807.88671875</ele>
        <time>2012-06-07T19:05:48Z</time>
      </trkpt>
      <trkpt lat="44.58858" lon="2.9218">
        <ele>807.9609375</ele>
        <time>2012-06-07T19:06:08Z</time>
      </trkpt>
      <trkpt lat="44.58852" lon="2.92191">
        <ele>811.5859375</ele>
        <time>2012-06-07T19:06:28Z</time>
      </trkpt>
      <trkpt lat="44.58874" lon="2.92226">
        <ele>810.97265625</ele>
        <time>2012-06-07T19:06:48Z</time>
      </trkpt>
      <trkpt lat="44.58781" lon="2.92164">
        <ele>831.2265625</ele>
        <time>2012-06-07T19:07:08Z</time>
      </trkpt>
      <trkpt lat="44.58748" lon="2.92125">
        <ele>833.0703125</ele>
        <time>2012-06-07T19:07:28Z</time>
      </trkpt>
      <trkpt lat="44.58735" lon="2.92096">
        <ele>829.4609375</ele>
        <time>2012-06-07T19:07:48Z</time>
      </trkpt>
      <trkpt lat="44.5869" lon="2.9207">
        <ele>838.04296875</ele>
        <time>2012-06-07T19:08:08Z</time>
      </trkpt>
      <trkpt lat="44.58656" lon="2.92027">
        <ele>840.390625</ele>
        <time>2012-06-07T19:08:28Z</time>
      </trkpt>
      <trkpt lat="44.58649" lon="2.9203">
        <ele>843.19140625</ele>
        <time>2012-06-07T19:08:48Z</time>
      </trkpt>
      <trkpt lat="44.5867" lon="2.92084">
        <ele>847.4140625</ele>
        <time>2012-06-07T19:09:08Z</time>
      </trkpt>
      <trkpt lat="44.58625" lon="2.92047">
        <ele>853.3203125</ele>
        <time>2012-06-07T19:09:28Z</time>
      </trkpt>
      <trkpt lat="44.58592" lon="2.91998">
        <ele>853.09765625</ele>
        <time>2012-06-07T19:09:48Z</time>
      </trkpt>
      <trkpt lat="44.58563" lon="2.91972">
        <ele>852.95703125</ele>
        <time>2012-06-07T19:10:08Z</time>
      </trkpt>
      <trkpt lat="44.58493" lon="2.91951">
        <ele>855.09765625</ele>
        <time>2012-06-07T19:10:28Z</time>
      </trkpt>
      <trkpt lat="44.58406" lon="2.91934">
        <ele>865.87890625</ele>
        <time>2012-06-07T19:10:48Z</time>
      </trkpt>
      <trkpt lat="44.58345" lon="2.91901">
        <ele>872.4140625</ele>
        <time>2012-06-07T19:11:08Z</time>
      </trkpt>
      <trkpt lat="44.58281" lon="2.91856">
        <ele>872.828125</ele>
        <time>2012-06-07T19:11:28Z</time>
      </trkpt>
      <trkpt lat="44.58183" lon="2.91824">
        <ele>875.62890625</ele>
        <time>2012-06-07T19:11:48Z</time>
      </trkpt>
      <trkpt lat="44.58117" lon="2.91784">
        <ele>867.76953125</ele>
        <time>2012-06-07T19:12:08Z</time>
      </trkpt>
      <trkpt lat="44.58095" lon="2.91777">
        <ele>866.25390625</ele>
        <time>2012-06-07T19:12:28Z</time>
      </trkpt>
      <trkpt lat="44.58012" lon="2.91796">
        <ele>864.83203125</ele>
        <time>2012-06-07T19:12:48Z</time>
      </trkpt>
      <trkpt lat="44.5789" lon="2.91834">
        <ele>860.91015625</ele>
        <time>2012-06-07T19:13:08Z</time>
      </trkpt>
      <trkpt lat="44.57867" lon="2.91867">
        <ele>864.9296875</ele>
        <time>2012-06-07T19:13:28Z</time>
      </trkpt>
      <trkpt lat="44.57826" lon="2.91873">
        <ele>871.17578125</ele>
        <time>2012-06-07T19:13:48Z</time>
      </trkpt>
      <trkpt lat="44.5782" lon="2.91803">
        <ele>875.359375</ele>
        <time>2012-06-07T19:14:08Z</time>
      </trkpt>
      <trkpt lat="44.57825" lon="2.91672">
        <ele>878.12109375</ele>
        <time>2012-06-07T19:14:28Z</time>
      </trkpt>
      <trkpt lat="44.5783" lon="2.91511">
        <ele>882.43359375</ele>
        <time>2012-06-07T19:14:48Z</time>
      </trkpt>
      <trkpt lat="44.57839" lon="2.91432">
        <ele>880.22265625</ele>
        <time>2012-06-07T19:15:08Z</time>
      </trkpt>
      <trkpt lat="44.5782" lon="2.91365">
        <ele>880.43359375</ele>
        <time>2012-06-07T19:15:28Z</time>
      </trkpt>
      <trkpt lat="44.57748" lon="2.9126">
        <ele>883.42578125</ele>
        <time>2012-06-07T19:15:48Z</time>
      </trkpt>
      <trkpt lat="44.57683" lon="2.91192">
        <ele>887.27734375</ele>
        <time>2012-06-07T19:16:08Z</time>
      </trkpt>
      <trkpt lat="44.57648" lon="2.91118">
        <ele>883.1953125</ele>
        <time>2012-06-07T19:16:28Z</time>
      </trkpt>
      <trkpt lat="44.57589" lon="2.91049">
        <ele>886.84375</ele>
        <time>2012-06-07T19:16:48Z</time>
      </trkpt>
      <trkpt lat="44.57586" lon="2.91013">
        <ele>889.8671875</ele>
        <time>2012-06-07T19:17:08Z</time>
      </trkpt>
      <trkpt lat="44.57602" lon="2.90959">
        <ele>892.40625</ele>
        <time>2012-06-07T19:17:28Z</time>
      </trkpt>
      <trkpt lat="44.5761" lon="2.90778">
        <ele>911.48828125</ele>
        <time>2012-06-07T19:17:48Z</time>
      </trkpt>
      <trkpt lat="44.5759" lon="2.90635">
        <ele>918.203125</ele>
        <time>2012-06-07T19:18:08Z</time>
      </trkpt>
      <trkpt lat="44.57576" lon="2.90627">
        <ele>919.8203125</ele>
        <time>2012-06-07T19:18:28Z</time>
      </trkpt>
      <trkpt lat="44.57544" lon="2.9065">
        <ele>925.22265625</ele>
        <time>2012-06-07T19:18:48Z</time>
      </trkpt>
      <trkpt lat="44.57528" lon="2.90606">
        <ele>923.81640625</ele>
        <time>2012-06-07T19:19:08Z</time>
      </trkpt>
      <trkpt lat="44.57466" lon="2.9055">
        <ele>922.39453125</ele>
        <time>2012-06-07T19:19:28Z</time>
      </trkpt>
      <trkpt lat="44.5741" lon="2.90532">
        <ele>923.21875</ele>
        <time>2012-06-07T19:19:48Z</time>
      </trkpt>
      <trkpt lat="44.57324" lon="2.90454">
        <ele>914.84765625</ele>
        <time>2012-06-07T19:20:08Z</time>
      </trkpt>
      <trkpt lat="44.57299" lon="2.90443">
        <ele>911.73046875</ele>
        <time>2012-06-07T19:20:28Z</time>
      </trkpt>
      <trkpt lat="44.57281" lon="2.90418">
        <ele>907.375</ele>
        <time>2012-06-07T19:20:48Z</time>
      </trkpt>
      <trkpt lat="44.57269" lon="2.90374">
        <ele>903.1640625</ele>
        <time>2012-06-07T19:21:08Z</time>
      </trkpt>
      <trkpt lat="44.5722" lon="2.90459">
        <ele>903.640625</ele>
        <time>2012-06-07T19:21:28Z</time>
      </trkpt>
      <trkpt lat="44.57176" lon="2.90478">
        <ele>906.6875</ele>
        <time>2012-06-07T19:21:48Z</time>
      </trkpt>
      <trkpt lat="44.57151" lon="2.90465">
        <ele>908.52734375</ele>
        <time>2012-06-07T19:22:08Z</time>
      </trkpt>
      <trkpt lat="44.57116" lon="2.90385">
        <ele>906.734375</ele>
        <time>2012-06-07T19:22:28Z</time>
      </trkpt>
      <trkpt lat="44.571" lon="2.90328">
        <ele>903.765625</ele>
        <time>2012-06-07T19:22:48Z</time>
      </trkpt>
      <trkpt lat="44.57055" lon="2.90246">
        <ele>901.60546875</ele>
        <time>2012-06-07T19:23:08Z</time>
      </trkpt>
      <trkpt lat="44.57022" lon="2.90204">
        <ele>904.33203125</ele>
        <time>2012-06-07T19:23:28Z</time>
      </trkpt>
      <trkpt lat="44.57027" lon="2.90173">
        <ele>901.91015625</ele>
        <time>2012-06-07T19:23:48Z</time>
      </trkpt>
      <trkpt lat="44.56987" lon="2.9005">
        <ele>899.58203125</ele>
        <time>2012-06-07T19:24:08Z</time>
      </trkpt>
      <trkpt lat="44.56921" lon="2.90063">
        <ele>907.09375</ele>
        <time>2012-06-07T19:24:28Z</time>
      </trkpt>
      <trkpt lat="44.56884" lon="2.90044">
        <ele>907.99609375</ele>
        <time>2012-06-07T19:24:48Z</time>
      </trkpt>
      <trkpt lat="44.56843" lon="2.89981">
        <ele>902.390625</ele>
        <time>2012-06-07T19:25:08Z</time>
      </trkpt>
      <trkpt lat="44.56802" lon="2.89945">
        <ele>903.625</ele>
        <time>2012-06-07T19:25:28Z</time>
      </trkpt>
      <trkpt lat="44.56699" lon="2.89767">
        <ele>906.0625</ele>
        <time>2012-06-07T19:25:48Z</time>
      </trkpt>
      <trkpt lat="44.56688" lon="2.8976">
        <ele>906.3359375</ele>
        <time>2012-06-07T19:26:08Z</time>
      </trkpt>
      <trkpt lat="44.5666" lon="2.89691">
        <ele>902.0078125</ele>
        <time>2012-06-07T19:26:28Z</time>
      </trkpt>
      <trkpt lat="44.56496" lon="2.89473">
        <ele>885.78515625</ele>
        <time>2012-06-07T19:26:48Z</time>
      </trkpt>
      <trkpt lat="44.5644" lon="2.89374">
        <ele>885.20703125</ele>
        <time>2012-06-07T19:27:08Z</time>
      </trkpt>
      <trkpt lat="44.56385" lon="2.89171">
        <ele>879.9921875</ele>
        <time>2012-06-07T19:27:28Z</time>
      </trkpt>
      <trkpt lat="44.56291" lon="2.88951">
        <ele>867.59375</ele>
        <time>2012-06-07T19:27:48Z</time>
      </trkpt>
      <trkpt lat="44.56212" lon="2.88827">
        <ele>858.8125</ele>
        <time>2012-06-07T19:28:08Z</time>
      </trkpt>
      <trkpt lat="44.5613" lon="2.88759">
        <ele>853.046875</ele>
        <time>2012-06-07T19:28:28Z</time>
      </trkpt>
      <trkpt lat="44.55983" lon="2.88671">
        <ele>863.4296875</ele>
        <time>2012-06-07T19:28:48Z</time>
      </trkpt>
      <trkpt lat="44.55955" lon="2.88621">
        <ele>867.67578125</ele>
        <time>2012-06-07T19:29:08Z</time>
      </trkpt>
      <trkpt lat="44.5594" lon="2.8855">
        <ele>868.93359375</ele>
        <time>2012-06-07T19:29:28Z</time>
      </trkpt>
      <trkpt lat="44.55957" lon="2.88478">
        <ele>868.2890625</ele>
        <time>2012-06-07T19:29:48Z</time>
      </trkpt>
      <trkpt lat="44.55995" lon="2.88357">
        <ele>866.43359375</ele>
        <time>2012-06-07T19:30:08Z</time>
      </trkpt>
      <trkpt lat="44.56074" lon="2.87963">
        <ele>849.375</ele>
        <time>2012-06-07T19:30:28Z</time>
      </trkpt>
      <trkpt lat="44.56081" lon="2.879">
        <ele>846.91796875</ele>
        <time>2012-06-07T19:30:48Z</time>
      </trkpt>
      <trkpt lat="44.56076" lon="2.8785">
        <ele>844.44140625</ele>
        <time>2012-06-07T19:31:08Z</time>
      </trkpt>
      <trkpt lat="44.56082" lon="2.87625">
        <ele>839.515625</ele>
        <time>2012-06-07T19:31:28Z</time>
      </trkpt>
      <trkpt lat="44.56062" lon="2.8753">
        <ele>838.234375</ele>
        <time>2012-06-07T19:31:48Z</time>
      </trkpt>
      <trkpt lat="44.56003" lon="2.87407">
        <ele>832.63671875</ele>
        <time>2012-06-07T19:32:08Z</time>
      </trkpt>
      <trkpt lat="44.55873" lon="2.87216">
        <ele>821.46484375</ele>
        <time>2012-06-07T19:32:28Z</time>
      </trkpt>
      <trkpt lat="44.55864" lon="2.87118">
        <ele>822.92578125</ele>
        <time>2012-06-07T19:32:48Z</time>
      </trkpt>
      <trkpt lat="44.55845" lon="2.87055">
        <ele>824.0078125</ele>
        <time>2012-06-07T19:33:08Z</time>
      </trkpt>
      <trkpt lat="44.55726" lon="2.86827">
        <ele>820.046875</ele>
        <time>2012-06-07T19:33:28Z</time>
      </trkpt>
      <trkpt lat="44.55684" lon="2.86771">
        <ele>816.421875</ele>
        <time>2012-06-07T19:33:48Z</time>
      </trkpt>
      <trkpt lat="44.55674" lon="2.86746">
        <ele>815.15625</ele>
        <time>2012-06-07T19:34:08Z</time>
      </trkpt>
      <trkpt lat="44.55543" lon="2.8663">
        <ele>802.4921875</ele>
        <time>2012-06-07T19:34:28Z</time>
      </trkpt>
      <trkpt lat="44.55516" lon="2.86595">
        <ele>799.23828125</ele>
        <time>2012-06-07T19:34:48Z</time>
      </trkpt>
      <trkpt lat="44.5547" lon="2.86564">
        <ele>793.23046875</ele>
        <time>2012-06-07T19:35:08Z</time>
      </trkpt>
      <trkpt lat="44.55453" lon="2.86522">
        <ele>789.19921875</ele>
        <time>2012-06-07T19:35:28Z</time>
      </trkpt>
      <trkpt lat="44.55423" lon="2.86557">
        <ele>788.171875</ele>
        <time>2012-06-07T19:35:48Z</time>
      </trkpt>
      <trkpt lat="44.55294" lon="2.86539">
        <ele>771.4921875</ele>
        <time>2012-06-07T19:36:08Z</time>
      </trkpt>
      <trkpt lat="44.5525" lon="2.86513">
        <ele>767.46875</ele>
        <time>2012-06-07T19:36:28Z</time>
      </trkpt>
      <trkpt lat="44.55233" lon="2.86483">
        <ele>766.83984375</ele>
        <time>2012-06-07T19:36:48Z</time>
      </trkpt>
      <trkpt lat="44.55092" lon="2.86453">
        <ele>758.37890625</ele>
        <time>2012-06-07T19:37:08Z</time>
      </trkpt>
      <trkpt lat="44.55052" lon="2.86421">
        <ele>754.51171875</ele>
        <time>2012-06-07T19:37:28Z</time>
      </trkpt>
      <trkpt lat="44.54976" lon="2.8634">
        <ele>745.88671875</ele>
        <time>2012-06-07T19:37:48Z</time>
      </trkpt>
      <trkpt lat="44.54895" lon="2.86309">
        <ele>737.921875</ele>
        <time>2012-06-07T19:38:08Z</time>
      </trkpt>
      <trkpt lat="44.54847" lon="2.8627">
        <ele>732.84765625</ele>
        <time>2012-06-07T19:38:28Z</time>
      </trkpt>
      <trkpt lat="44.54757" lon="2.86151">
        <ele>707.2578125</ele>
        <time>2012-06-07T19:38:48Z</time>
      </trkpt>
      <trkpt lat="44.54709" lon="2.86036">
        <ele>705.6953125</ele>
        <time>2012-06-07T19:39:08Z</time>
      </trkpt>
      <trkpt lat="44.54647" lon="2.85978">
        <ele>708.0390625</ele>
        <time>2012-06-07T19:39:28Z</time>
      </trkpt>
      <trkpt lat="44.54573" lon="2.85943">
        <ele>706.66015625</ele>
        <time>2012-06-07T19:39:48Z</time>
      </trkpt>
      <trkpt lat="44.54456" lon="2.85945">
        <ele>697.12890625</ele>
        <time>2012-06-07T19:40:08Z</time>
      </trkpt>
      <trkpt lat="44.54363" lon="2.85894">
        <ele>682.9140625</ele>
        <time>2012-06-07T19:40:28Z</time>
      </trkpt>
      <trkpt lat="44.54247" lon="2.8569">
        <ele>668.91015625</ele>
        <time>2012-06-07T19:40:48Z</time>
      </trkpt>
      <trkpt lat="44.54202" lon="2.85632">
        <ele>664.796875</ele>
        <time>2012-06-07T19:41:08Z</time>
      </trkpt>
      <trkpt lat="44.54188" lon="2.85554">
        <ele>668.7421875</ele>
        <time>2012-06-07T19:41:28Z</time>
      </trkpt>
      <trkpt lat="44.54174" lon="2.85538">
        <ele>667.453125</ele>
        <time>2012-06-07T19:41:48Z</time>
      </trkpt>
      <trkpt lat="44.54152" lon="2.85534">
        <ele>663.4609375</ele>
        <time>2012-06-07T19:42:08Z</time>
      </trkpt>
      <trkpt lat="44.54063" lon="2.85463">
        <ele>648.83984375</ele>
        <time>2012-06-07T19:42:28Z</time>
      </trkpt>
      <trkpt lat="44.54024" lon="2.85416">
        <ele>642.8203125</ele>
        <time>2012-06-07T19:42:48Z</time>
      </trkpt>
      <trkpt lat="44.54013" lon="2.85381">
        <ele>641.76953125</ele>
        <time>2012-06-07T19:43:08Z</time>
      </trkpt>
      <trkpt lat="44.53939" lon="2.85321">
        <ele>630.953125</ele>
        <time>2012-06-07T19:43:28Z</time>
      </trkpt>
      <trkpt lat="44.53834" lon="2.85296">
        <ele>619.81640625</ele>
        <time>2012-06-07T19:43:48Z</time>
      </trkpt>
      <trkpt lat="44.53727" lon="2.85199">
        <ele>599.90234375</ele>
        <time>2012-06-07T19:44:08Z</time>
      </trkpt>
      <trkpt lat="44.53701" lon="2.85165">
        <ele>593.859375</ele>
        <time>2012-06-07T19:44:28Z</time>
      </trkpt>
      <trkpt lat="44.53642" lon="2.8512">
        <ele>577.84765625</ele>
        <time>2012-06-07T19:44:48Z</time>
      </trkpt>
      <trkpt lat="44.53608" lon="2.85148">
        <ele>571.75</ele>
        <time>2012-06-07T19:45:08Z</time>
      </trkpt>
      <trkpt lat="44.53607" lon="2.85168">
        <ele>571.42578125</ele>
        <time>2012-06-07T19:45:28Z</time>
      </trkpt>
      <trkpt lat="44.53574" lon="2.85126">
        <ele>562.9765625</ele>
        <time>2012-06-07T19:45:48Z</time>
      </trkpt>
      <trkpt lat="44.53562" lon="2.85087">
        <ele>560.2265625</ele>
        <time>2012-06-07T19:46:08Z</time>
      </trkpt>
      <trkpt lat="44.53567" lon="2.85017">
        <ele>555.4765625</ele>
        <time>2012-06-07T19:46:28Z</time>
      </trkpt>
      <trkpt lat="44.53543" lon="2.84998">
        <ele>550.79296875</ele>
        <time>2012-06-07T19:46:48Z</time>
      </trkpt>
      <trkpt lat="44.53489" lon="2.84992">
        <ele>544.1015625</ele>
        <time>2012-06-07T19:47:08Z</time>
      </trkpt>
      <trkpt lat="44.53453" lon="2.84974">
        <ele>534.921875</ele>
        <time>2012-06-07T19:47:28Z</time>
      </trkpt>
      <trkpt lat="44.53443" lon="2.84925">
        <ele>526.13671875</ele>
        <time>2012-06-07T19:47:48Z</time>
      </trkpt>
      <trkpt lat="44.53425" lon="2.8492">
        <ele>521.61328125</ele>
        <time>2012-06-07T19:48:08Z</time>
      </trkpt>
      <trkpt lat="44.53381" lon="2.84968">
        <ele>513.49609375</ele>
        <time>2012-06-07T19:48:28Z</time>
      </trkpt>
      <trkpt lat="44.53372" lon="2.84962">
        <ele>509.3359375</ele>
        <time>2012-06-07T19:48:48Z</time>
      </trkpt>
      <trkpt lat="44.53373" lon="2.84917">
        <ele>504.01953125</ele>
        <time>2012-06-07T19:49:08Z</time>
      </trkpt>
      <trkpt lat="44.53336" lon="2.84959">
        <ele>492.546875</ele>
        <time>2012-06-07T19:49:28Z</time>
      </trkpt>
      <trkpt lat="44.53313" lon="2.84959">
        <ele>480.11328125</ele>
        <time>2012-06-07T19:49:48Z</time>
      </trkpt>
      <trkpt lat="44.53303" lon="2.84917">
        <ele>468.296875</ele>
        <time>2012-06-07T19:50:08Z</time>
      </trkpt>
      <trkpt lat="44.53274" lon="2.84889">
        <ele>447.04296875</ele>
        <time>2012-06-07T19:50:28Z</time>
      </trkpt>
      <trkpt lat="44.53233" lon="2.84929">
        <ele>429.96484375</ele>
        <time>2012-06-07T19:50:48Z</time>
      </trkpt>
      <trkpt lat="44.53219" lon="2.84922">
        <ele>422.41015625</ele>
        <time>2012-06-07T19:51:08Z</time>
      </trkpt>
      <trkpt lat="44.53223" lon="2.84847">
        <ele>417.734375</ele>
        <time>2012-06-07T19:51:28Z</time>
      </trkpt>
      <trkpt lat="44.53215" lon="2.84829">
        <ele>416.0234375</ele>
        <time>2012-06-07T19:51:48Z</time>
      </trkpt>
      <trkpt lat="44.53199" lon="2.84831">
        <ele>413.76171875</ele>
        <time>2012-06-07T19:52:08Z</time>
      </trkpt>
      <trkpt lat="44.5319" lon="2.84844">
        <ele>411.984375</ele>
        <time>2012-06-07T19:52:28Z</time>
      </trkpt>
      <trkpt lat="44.53135" lon="2.84827">
        <ele>410.5078125</ele>
        <time>2012-06-07T19:52:48Z</time>
      </trkpt>
      <trkpt lat="44.53038" lon="2.84678">
        <ele>427.75</ele>
        <time>2012-06-07T19:53:08Z</time>
      </trkpt>
      <trkpt lat="44.53" lon="2.84643">
        <ele>425.80859375</ele>
        <time>2012-06-07T19:53:28Z</time>
      </trkpt>
      <trkpt lat="44.53" lon="2.84553">
        <ele>448.78515625</ele>
        <time>2012-06-07T19:53:48Z</time>
      </trkpt>
      <trkpt lat="44.52976" lon="2.84565">
        <ele>448.6796875</ele>
        <time>2012-06-07T19:54:08Z</time>
      </trkpt>
      <trkpt lat="44.52926" lon="2.84615">
        <ele>448.59765625</ele>
        <time>2012-06-07T19:54:28Z</time>
      </trkpt>
      <trkpt lat="44.52873" lon="2.84705">
        <ele>435.11328125</ele>
        <time>2012-06-07T19:54:48Z</time>
      </trkpt>
      <trkpt lat="44.52854" lon="2.84703">
        <ele>434.68359375</ele>
        <time>2012-06-07T19:55:08Z</time>
      </trkpt>
      <trkpt lat="44.52831" lon="2.84678">
        <ele>433.67578125</ele>
        <time>2012-06-07T19:55:28Z</time>
      </trkpt>
      <trkpt lat="44.52832" lon="2.84641">
        <ele>436.734375</ele>
        <time>2012-06-07T19:55:48Z</time>
      </trkpt>
      <trkpt lat="44.52852" lon="2.84593">
        <ele>446.91796875</ele>
        <time>2012-06-07T19:56:08Z</time>
      </trkpt>
      <trkpt lat="44.52863" lon="2.846">
        <ele>448.0703125</ele>
        <time>2012-06-07T19:56:28Z</time>
      </trkpt>
      <trkpt lat="44.52868" lon="2.84625">
        <ele>446.30078125</ele>
        <time>2012-06-07T19:56:48Z</time>
      </trkpt>
      <trkpt lat="44.52889" lon="2.84605">
        <ele>450.3046875</ele>
        <time>2012-06-07T19:57:08Z</time>
      </trkpt>
      <trkpt lat="44.52936" lon="2.84495">
        <ele>465.89453125</ele>
        <time>2012-06-07T19:57:28Z</time>
      </trkpt>
      <trkpt lat="44.52984" lon="2.8444">
        <ele>482.28515625</ele>
        <time>2012-06-07T19:57:48Z</time>
      </trkpt>
      <trkpt lat="44.53014" lon="2.84443">
        <ele>486.890625</ele>
        <time>2012-06-07T19:58:08Z</time>
      </trkpt>
      <trkpt lat="44.5309" lon="2.84326">
        <ele>503.921875</ele>
        <time>2012-06-07T19:58:28Z</time>
      </trkpt>
      <trkpt lat="44.53101" lon="2.84268">
        <ele>506.9609375</ele>
        <time>2012-06-07T19:58:48Z</time>
      </trkpt>
      <trkpt lat="44.53132" lon="2.84221">
        <ele>514.60546875</ele>
        <time>2012-06-07T19:59:08Z</time>
      </trkpt>
      <trkpt lat="44.53126" lon="2.84186">
        <ele>517.07421875</ele>
        <time>2012-06-07T19:59:28Z</time>
      </trkpt>
      <trkpt lat="44.53116" lon="2.84177">
        <ele>516.64453125</ele>
        <time>2012-06-07T19:59:48Z</time>
      </trkpt>
      <trkpt lat="44.53111" lon="2.84088">
        <ele>519.734375</ele>
        <time>2012-06-07T20:00:08Z</time>
      </trkpt>
      <trkpt lat="44.53102" lon="2.84049">
        <ele>517.3515625</ele>
        <time>2012-06-07T20:00:28Z</time>
      </trkpt>
      <trkpt lat="44.53061" lon="2.83971">
        <ele>507.19921875</ele>
        <time>2012-06-07T20:00:48Z</time>
      </trkpt>
      <trkpt lat="44.52958" lon="2.83926">
        <ele>501.39453125</ele>
        <time>2012-06-07T20:01:08Z</time>
      </trkpt>
      <trkpt lat="44.52945" lon="2.83902">
        <ele>499.046875</ele>
        <time>2012-06-07T20:01:28Z</time>
      </trkpt>
      <trkpt lat="44.52942" lon="2.83828">
        <ele>490.57421875</ele>
        <time>2012-06-07T20:01:48Z</time>
      </trkpt>
      <trkpt lat="44.52923" lon="2.83777">
        <ele>483.25390625</ele>
        <time>2012-06-07T20:02:08Z</time>
      </trkpt>
      <trkpt lat="44.52953" lon="2.8376">
        <ele>479.69921875</ele>
        <time>2012-06-07T20:02:28Z</time>
      </trkpt>
      <trkpt lat="44.52995" lon="2.83783">
        <ele>482.09375</ele>
        <time>2012-06-07T20:02:48Z</time>
      </trkpt>
      <trkpt lat="44.5301" lon="2.83749">
        <ele>482.89453125</ele>
        <time>2012-06-07T20:03:08Z</time>
      </trkpt>
      <trkpt lat="44.53008" lon="2.83706">
        <ele>489.6640625</ele>
        <time>2012-06-07T20:03:28Z</time>
      </trkpt>
      <trkpt lat="44.52976" lon="2.83671">
        <ele>486.48046875</ele>
        <time>2012-06-07T20:03:48Z</time>
      </trkpt>
      <trkpt lat="44.52966" lon="2.83547">
        <ele>496.25</ele>
        <time>2012-06-07T20:04:08Z</time>
      </trkpt>
      <trkpt lat="44.52951" lon="2.83513">
        <ele>496.3828125</ele>
        <time>2012-06-07T20:04:28Z</time>
      </trkpt>
      <trkpt lat="44.52944" lon="2.83436">
        <ele>503.59765625</ele>
        <time>2012-06-07T20:04:48Z</time>
      </trkpt>
      <trkpt lat="44.52929" lon="2.83393">
        <ele>507.59375</ele>
        <time>2012-06-07T20:05:08Z</time>
      </trkpt>
      <trkpt lat="44.52887" lon="2.83349">
        <ele>511.703125</ele>
        <time>2012-06-07T20:05:28Z</time>
      </trkpt>
      <trkpt lat="44.52849" lon="2.83234">
        <ele>520.328125</ele>
        <time>2012-06-07T20:05:48Z</time>
      </trkpt>
      <trkpt lat="44.52865" lon="2.83183">
        <ele>520.29296875</ele>
        <time>2012-06-07T20:06:08Z</time>
      </trkpt>
      <trkpt lat="44.52821" lon="2.83142">
        <ele>515.03515625</ele>
        <time>2012-06-07T20:06:28Z</time>
      </trkpt>
      <trkpt lat="44.52809" lon="2.83146">
        <ele>514.70703125</ele>
        <time>2012-06-07T20:06:48Z</time>
      </trkpt>
      <trkpt lat="44.52723" lon="2.83213">
        <ele>513.35546875</ele>
        <time>2012-06-07T20:07:08Z</time>
      </trkpt>
      <trkpt lat="44.52713" lon="2.83262">
        <ele>512.64453125</ele>
        <time>2012-06-07T20:07:28Z</time>
      </trkpt>
      <trkpt lat="44.52649" lon="2.83339">
        <ele>509.01171875</ele>
        <time>2012-06-07T20:07:48Z</time>
      </trkpt>
      <trkpt lat="44.52585" lon="2.83355">
        <ele>505.70703125</ele>
        <time>2012-06-07T20:08:08Z</time>
      </trkpt>
      <trkpt lat="44.52548" lon="2.83199">
        <ele>503.43359375</ele>
        <time>2012-06-07T20:08:28Z</time>
      </trkpt>
      <trkpt lat="44.5253" lon="2.83175">
        <ele>500.7265625</ele>
        <time>2012-06-07T20:08:48Z</time>
      </trkpt>
      <trkpt lat="44.52508" lon="2.83089">
        <ele>493.04296875</ele>
        <time>2012-06-07T20:09:08Z</time>
      </trkpt>
      <trkpt lat="44.5247" lon="2.83071">
        <ele>483.078125</ele>
        <time>2012-06-07T20:09:28Z</time>
      </trkpt>
      <trkpt lat="44.52447" lon="2.82998">
        <ele>477.4140625</ele>
        <time>2012-06-07T20:09:48Z</time>
      </trkpt>
      <trkpt lat="44.52421" lon="2.82856">
        <ele>466.19140625</ele>
        <time>2012-06-07T20:10:08Z</time>
      </trkpt>
      <trkpt lat="44.52395" lon="2.82835">
        <ele>460.06640625</ele>
        <time>2012-06-07T20:10:28Z</time>
      </trkpt>
      <trkpt lat="44.52412" lon="2.8276">
        <ele>453.61328125</ele>
        <time>2012-06-07T20:10:48Z</time>
      </trkpt>
      <trkpt lat="44.52394" lon="2.82706">
        <ele>447.796875</ele>
        <time>2012-06-07T20:11:08Z</time>
      </trkpt>
      <trkpt lat="44.52301" lon="2.82593">
        <ele>428.87109375</ele>
        <time>2012-06-07T20:11:28Z</time>
      </trkpt>
      <trkpt lat="44.52293" lon="2.82569">
        <ele>425.4296875</ele>
        <time>2012-06-07T20:11:48Z</time>
      </trkpt>
      <trkpt lat="44.52266" lon="2.82548">
        <ele>422.55078125</ele>
        <time>2012-06-07T20:12:08Z</time>
      </trkpt>
      <trkpt lat="44.52205" lon="2.8245">
        <ele>418.86328125</ele>
        <time>2012-06-07T20:12:28Z</time>
      </trkpt>
      <trkpt lat="44.52161" lon="2.82354">
        <ele>415.97265625</ele>
        <time>2012-06-07T20:12:48Z</time>
      </trkpt>
      <trkpt lat="44.52129" lon="2.82411">
        <ele>421.31640625</ele>
        <time>2012-06-07T20:13:08Z</time>
      </trkpt>
      <trkpt lat="44.52043" lon="2.82295">
        <ele>412.79296875</ele>
        <time>2012-06-07T20:13:28Z</time>
      </trkpt>
      <trkpt lat="44.51971" lon="2.82233">
        <ele>408.24609375</ele>
        <time>2012-06-07T20:13:48Z</time>
      </trkpt>
      <trkpt lat="44.51902" lon="2.82096">
        <ele>400.84375</ele>
        <time>2012-06-07T20:14:08Z</time>
      </trkpt>
      <trkpt lat="44.51859" lon="2.82054">
        <ele>395.37890625</ele>
        <time>2012-06-07T20:14:28Z</time>
      </trkpt>
      <trkpt lat="44.51775" lon="2.82011">
        <ele>385.41796875</ele>
        <time>2012-06-07T20:14:48Z</time>
      </trkpt>
      <trkpt lat="44.51781" lon="2.8194">
        <ele>382.61328125</ele>
        <time>2012-06-07T20:15:08Z</time>
      </trkpt>
      <trkpt lat="44.51738" lon="2.81795">
        <ele>370.00390625</ele>
        <time>2012-06-07T20:15:28Z</time>
      </trkpt>
      <trkpt lat="44.51694" lon="2.81732">
        <ele>364.265625</ele>
        <time>2012-06-07T20:15:48Z</time>
      </trkpt>
      <trkpt lat="44.5165" lon="2.81717">
        <ele>361.0546875</ele>
        <time>2012-06-07T20:16:08Z</time>
      </trkpt>
      <trkpt lat="44.51651" lon="2.81663">
        <ele>362.11328125</ele>
        <time>2012-06-07T20:16:28Z</time>
      </trkpt>
      <trkpt lat="44.51635" lon="2.81651">
        <ele>361.68359375</ele>
        <time>2012-06-07T20:16:48Z</time>
      </trkpt>
      <trkpt lat="44.51584" lon="2.81547">
        <ele>362.30078125</ele>
        <time>2012-06-07T20:17:08Z</time>
      </trkpt>
      <trkpt lat="44.51503" lon="2.8158">
        <ele>356.4296875</ele>
        <time>2012-06-07T20:17:28Z</time>
      </trkpt>
      <trkpt lat="44.51476" lon="2.81569">
        <ele>354.51953125</ele>
        <time>2012-06-07T20:17:48Z</time>
      </trkpt>
      <trkpt lat="44.51455" lon="2.81519">
        <ele>353.13671875</ele>
        <time>2012-06-07T20:18:08Z</time>
      </trkpt>
      <trkpt lat="44.51436" lon="2.8156">
        <ele>351.6640625</ele>
        <time>2012-06-07T20:18:28Z</time>
      </trkpt>
      <trkpt lat="44.51411" lon="2.81654">
        <ele>350.4375</ele>
        <time>2012-06-07T20:18:48Z</time>
      </trkpt>
      <trkpt lat="44.51364" lon="2.81665">
        <ele>348.734375</ele>
        <time>2012-06-07T20:19:08Z</time>
      </trkpt>
      <trkpt lat="44.51229" lon="2.81621">
        <ele>348</ele>
        <time>2012-06-07T20:19:28Z</time>
      </trkpt>
      <trkpt lat="44.51191" lon="2.81476">
        <ele>347.15234375</ele>
        <time>2012-06-07T20:19:48Z</time>
      </trkpt>
      <trkpt lat="44.51051" lon="2.81059">
        <ele>346</ele>
        <time>2012-06-07T20:20:08Z</time>
      </trkpt>
      <trkpt lat="44.51028" lon="2.80982">
        <ele>346</ele>
        <time>2012-06-07T20:20:28Z</time>
      </trkpt>
      <trkpt lat="44.50961" lon="2.80907">
        <ele>346</ele>
        <time>2012-06-07T20:20:48Z</time>
      </trkpt>
      <trkpt lat="44.50898" lon="2.80848">
        <ele>346.02734375</ele>
        <time>2012-06-07T20:21:08Z</time>
      </trkpt>
      <trkpt lat="44.50858" lon="2.80824">
        <ele>347</ele>
        <time>2012-06-07T20:21:28Z</time>
      </trkpt>
      <trkpt lat="44.50741" lon="2.80586">
        <ele>351.9296875</ele>
        <time>2012-06-07T20:21:48Z</time>
      </trkpt>
      <trkpt lat="44.5072" lon="2.8051">
        <ele>355.77734375</ele>
        <time>2012-06-07T20:22:08Z</time>
      </trkpt>
      <trkpt lat="44.50725" lon="2.80369">
        <ele>351.6484375</ele>
        <time>2012-06-07T20:22:28Z</time>
      </trkpt>
      <trkpt lat="44.50666" lon="2.80248">
        <ele>355.0859375</ele>
        <time>2012-06-07T20:22:48Z</time>
      </trkpt>
      <trkpt lat="44.50677" lon="2.80208">
        <ele>358.1875</ele>
        <time>2012-06-07T20:23:08Z</time>
      </trkpt>
      <trkpt lat="44.5071" lon="2.80165">
        <ele>357.94921875</ele>
        <time>2012-06-07T20:23:28Z</time>
      </trkpt>
      <trkpt lat="44.50731" lon="2.80033">
        <ele>359.46484375</ele>
        <time>2012-06-07T20:23:48Z</time>
      </trkpt>
      <trkpt lat="44.50721" lon="2.79861">
        <ele>366.42578125</ele>
        <time>2012-06-07T20:24:08Z</time>
      </trkpt>
      <trkpt lat="44.50744" lon="2.79752">
        <ele>363.98828125</ele>
        <time>2012-06-07T20:24:28Z</time>
      </trkpt>
      <trkpt lat="44.50748" lon="2.79702">
        <ele>366.67578125</ele>
        <time>2012-06-07T20:24:48Z</time>
      </trkpt>
      <trkpt lat="44.50825" lon="2.79569">
        <ele>362.3515625</ele>
        <time>2012-06-07T20:25:08Z</time>
      </trkpt>
      <trkpt lat="44.50859" lon="2.79404">
        <ele>368.8671875</ele>
        <time>2012-06-07T20:25:28Z</time>
      </trkpt>
      <trkpt lat="44.50868" lon="2.79332">
        <ele>373.1875</ele>
        <time>2012-06-07T20:25:48Z</time>
      </trkpt>
      <trkpt lat="44.50921" lon="2.79257">
        <ele>375.08984375</ele>
        <time>2012-06-07T20:26:08Z</time>
      </trkpt>
      <trkpt lat="44.50998" lon="2.79176">
        <ele>374.3359375</ele>
        <time>2012-06-07T20:26:28Z</time>
      </trkpt>
      <trkpt lat="44.51058" lon="2.79124">
        <ele>364.82421875</ele>
        <time>2012-06-07T20:26:48Z</time>
      </trkpt>
      <trkpt lat="44.51103" lon="2.79039">
        <ele>358.5625</ele>
        <time>2012-06-07T20:27:08Z</time>
      </trkpt>
      <trkpt lat="44.51128" lon="2.78956">
        <ele>358.92578125</ele>
        <time>2012-06-07T20:27:28Z</time>
      </trkpt>
      <trkpt lat="44.51158" lon="2.78932">
        <ele>355.671875</ele>
        <time>2012-06-07T20:27:48Z</time>
      </trkpt>
      <trkpt lat="44.51218" lon="2.78927">
        <ele>345.82421875</ele>
        <time>2012-06-07T20:28:08Z</time>
      </trkpt>
      <trkpt lat="44.51263" lon="2.78891">
        <ele>343.6015625</ele>
        <time>2012-06-07T20:28:28Z</time>
      </trkpt>
      <trkpt lat="44.51334" lon="2.78801">
        <ele>341.76953125</ele>
        <time>2012-06-07T20:28:48Z</time>
      </trkpt>
      <trkpt lat="44.51397" lon="2.78772">
        <ele>337.21875</ele>
        <time>2012-06-07T20:29:08Z</time>
      </trkpt>
      <trkpt lat="44.51469" lon="2.7876">
        <ele>335.51171875</ele>
        <time>2012-06-07T20:29:28Z</time>
      </trkpt>
      <trkpt lat="44.5159" lon="2.78701">
        <ele>335.4296875</ele>
        <time>2012-06-07T20:29:48Z</time>
      </trkpt>
      <trkpt lat="44.51666" lon="2.78634">
        <ele>333.5859375</ele>
        <time>2012-06-07T20:30:08Z</time>
      </trkpt>
      <trkpt lat="44.51691" lon="2.78548">
        <ele>333.328125</ele>
        <time>2012-06-07T20:30:28Z</time>
      </trkpt>
      <trkpt lat="44.51725" lon="2.78369">
        <ele>347.37890625</ele>
        <time>2012-06-07T20:30:48Z</time>
      </trkpt>
      <trkpt lat="44.51819" lon="2.7809">
        <ele>350.58203125</ele>
        <time>2012-06-07T20:31:08Z</time>
      </trkpt>
      <trkpt lat="44.5197" lon="2.77667">
        <ele>337.5546875</ele>
        <time>2012-06-07T20:31:28Z</time>
      </trkpt>
      <trkpt lat="44.52045" lon="2.77512">
        <ele>339</ele>
        <time>2012-06-07T20:31:48Z</time>
      </trkpt>
      <trkpt lat="44.52101" lon="2.77406">
        <ele>338.70703125</ele>
        <time>2012-06-07T20:32:08Z</time>
      </trkpt>
      <trkpt lat="44.52127" lon="2.77313">
        <ele>339</ele>
        <time>2012-06-07T20:32:28Z</time>
      </trkpt>
      <trkpt lat="44.52109" lon="2.77323">
        <ele>339</ele>
        <time>2012-06-07T20:32:48Z</time>
      </trkpt>
      <trkpt lat="44.51994" lon="2.77305">
        <ele>339</ele>
        <time>2012-06-07T20:33:08Z</time>
      </trkpt>
      <trkpt lat="44.51955" lon="2.7728">
        <ele>339</ele>
        <time>2012-06-07T20:33:28Z</time>
      </trkpt>
      <trkpt lat="44.5196" lon="2.77221">
        <ele>339</ele>
        <time>2012-06-07T20:33:48Z</time>
      </trkpt>
      <trkpt lat="44.5182" lon="2.77221">
        <ele>339</ele>
        <time>2012-06-07T20:34:08Z</time>
      </trkpt>
      <trkpt lat="44.51782" lon="2.77181">
        <ele>340.2890625</ele>
        <time>2012-06-07T20:34:28Z</time>
      </trkpt>
      <trkpt lat="44.51839" lon="2.77125">
        <ele>339.15625</ele>
        <time>2012-06-07T20:34:48Z</time>
      </trkpt>
      <trkpt lat="44.51869" lon="2.76983">
        <ele>338.07421875</ele>
        <time>2012-06-07T20:35:08Z</time>
      </trkpt>
      <trkpt lat="44.51872" lon="2.76892">
        <ele>338.7734375</ele>
        <time>2012-06-07T20:35:28Z</time>
      </trkpt>
      <trkpt lat="44.51889" lon="2.7683">
        <ele>338.35546875</ele>
        <time>2012-06-07T20:35:48Z</time>
      </trkpt>
      <trkpt lat="44.51882" lon="2.76725">
        <ele>339.2109375</ele>
        <time>2012-06-07T20:36:08Z</time>
      </trkpt>
      <trkpt lat="44.51898" lon="2.76677">
        <ele>339.03515625</ele>
        <time>2012-06-07T20:36:28Z</time>
      </trkpt>
      <trkpt lat="44.51928" lon="2.7666">
        <ele>337.30859375</ele>
        <time>2012-06-07T20:36:48Z</time>
      </trkpt>
      <trkpt lat="44.52027" lon="2.76518">
        <ele>340.98046875</ele>
        <time>2012-06-07T20:37:08Z</time>
      </trkpt>
      <trkpt lat="44.52058" lon="2.76439">
        <ele>343.62109375</ele>
        <time>2012-06-07T20:37:28Z</time>
      </trkpt>
      <trkpt lat="44.52104" lon="2.76406">
        <ele>341.1875</ele>
        <time>2012-06-07T20:37:48Z</time>
      </trkpt>
      <trkpt lat="44.52126" lon="2.76406">
        <ele>339.65234375</ele>
        <time>2012-06-07T20:38:08Z</time>
      </trkpt>
      <trkpt lat="44.52147" lon="2.76371">
        <ele>338.14453125</ele>
        <time>2012-06-07T20:38:28Z</time>
      </trkpt>
      <trkpt lat="44.52165" lon="2.76374">
        <ele>337.3984375</ele>
        <time>2012-06-07T20:38:48Z</time>
      </trkpt>
      <trkpt lat="44.52202" lon="2.76326">
        <ele>338</ele>
        <time>2012-06-07T20:39:08Z</time>
      </trkpt>
      <trkpt lat="44.52219" lon="2.76335">
        <ele>337.953125</ele>
        <time>2012-06-07T20:39:28Z</time>
      </trkpt>
      <trkpt lat="44.52392" lon="2.76038">
        <ele>339</ele>
        <time>2012-06-07T20:39:48Z</time>
      </trkpt>
      <trkpt lat="44.52439" lon="2.75983">
        <ele>339</ele>
        <time>2012-06-07T20:40:08Z</time>
      </trkpt>
      <trkpt lat="44.52553" lon="2.75814">
        <ele>338.72265625</ele>
        <time>2012-06-07T20:40:28Z</time>
      </trkpt>
      <trkpt lat="44.5257" lon="2.75776">
        <ele>338.1953125</ele>
        <time>2012-06-07T20:40:48Z</time>
      </trkpt>
      <trkpt lat="44.52495" lon="2.75704">
        <ele>336.40234375</ele>
        <time>2012-06-07T20:41:08Z</time>
      </trkpt>
      <trkpt lat="44.5253" lon="2.75676">
        <ele>336.75390625</ele>
        <time>2012-06-07T20:41:28Z</time>
      </trkpt>
      <trkpt lat="44.52574" lon="2.75569">
        <ele>337.640625</ele>
        <time>2012-06-07T20:41:48Z</time>
      </trkpt>
      <trkpt lat="44.52642" lon="2.75338">
        <ele>338</ele>
        <time>2012-06-07T20:42:08Z</time>
      </trkpt>
      <trkpt lat="44.52664" lon="2.75226">
        <ele>338</ele>
        <time>2012-06-07T20:42:28Z</time>
      </trkpt>
      <trkpt lat="44.52576" lon="2.75176">
        <ele>341.8046875</ele>
        <time>2012-06-07T20:42:48Z</time>
      </trkpt>
      <trkpt lat="44.52578" lon="2.75146">
        <ele>342.76953125</ele>
        <time>2012-06-07T20:43:08Z</time>
      </trkpt>
      <trkpt lat="44.52632" lon="2.75054">
        <ele>341.58984375</ele>
        <time>2012-06-07T20:43:28Z</time>
      </trkpt>
      <trkpt lat="44.52638" lon="2.74994">
        <ele>341.26953125</ele>
        <time>2012-06-07T20:43:48Z</time>
      </trkpt>
      <trkpt lat="44.5251" lon="2.74899">
        <ele>350.9453125</ele>
        <time>2012-06-07T20:44:08Z</time>
      </trkpt>
      <trkpt lat="44.52394" lon="2.74863">
        <ele>360.33203125</ele>
        <time>2012-06-07T20:44:28Z</time>
      </trkpt>
      <trkpt lat="44.52393" lon="2.74858">
        <ele>360.3828125</ele>
        <time>2012-06-07T20:44:48Z</time>
      </trkpt>
      <trkpt lat="44.52428" lon="2.7472">
        <ele>357.78125</ele>
        <time>2012-06-07T20:45:08Z</time>
      </trkpt>
      <trkpt lat="44.5245" lon="2.74546">
        <ele>355.26171875</ele>
        <time>2012-06-07T20:45:28Z</time>
      </trkpt>
      <trkpt lat="44.52479" lon="2.74371">
        <ele>357.765625</ele>
        <time>2012-06-07T20:45:48Z</time>
      </trkpt>
      <trkpt lat="44.52547" lon="2.7426">
        <ele>356.14453125</ele>
        <time>2012-06-07T20:46:08Z</time>
      </trkpt>
      <trkpt lat="44.5264" lon="2.74147">
        <ele>348.859375</ele>
        <time>2012-06-07T20:46:28Z</time>
      </trkpt>
      <trkpt lat="44.52673" lon="2.74047">
        <ele>343.9453125</ele>
        <time>2012-06-07T20:46:48Z</time>
      </trkpt>
      <trkpt lat="44.52712" lon="2.74007">
        <ele>340.18359375</ele>
        <time>2012-06-07T20:47:08Z</time>
      </trkpt>
      <trkpt lat="44.52773" lon="2.73854">
        <ele>341.765625</ele>
        <time>2012-06-07T20:47:28Z</time>
      </trkpt>
      <trkpt lat="44.528" lon="2.73746">
        <ele>339.99609375</ele>
        <time>2012-06-07T20:47:48Z</time>
      </trkpt>
      <trkpt lat="44.52835" lon="2.73549">
        <ele>337.265625</ele>
        <time>2012-06-07T20:48:08Z</time>
      </trkpt>
      <trkpt lat="44.52795" lon="2.73475">
        <ele>339.421875</ele>
        <time>2012-06-07T20:48:28Z</time>
      </trkpt>
      <trkpt lat="44.52774" lon="2.73453">
        <ele>341.3984375</ele>
        <time>2012-06-07T20:48:48Z</time>
      </trkpt>
      <trkpt lat="44.52738" lon="2.73264">
        <ele>343.26953125</ele>
        <time>2012-06-07T20:49:08Z</time>
      </trkpt>
      <trkpt lat="44.52618" lon="2.73041">
        <ele>341.65234375</ele>
        <time>2012-06-07T20:49:28Z</time>
      </trkpt>
      <trkpt lat="44.52607" lon="2.72918">
        <ele>338.98046875</ele>
        <time>2012-06-07T20:49:48Z</time>
      </trkpt>
      <trkpt lat="44.52585" lon="2.72822">
        <ele>338.1640625</ele>
        <time>2012-06-07T20:50:08Z</time>
      </trkpt>
      <trkpt lat="44.526" lon="2.72798">
        <ele>339.26953125</ele>
        <time>2012-06-07T20:50:28Z</time>
      </trkpt>
      <trkpt lat="44.5264" lon="2.72838">
        <ele>337.84765625</ele>
        <time>2012-06-07T20:50:48Z</time>
      </trkpt>
      <trkpt lat="44.52693" lon="2.72783">
        <ele>358.33203125</ele>
        <time>2012-06-07T20:51:08Z</time>
      </trkpt>
      <trkpt lat="44.52681" lon="2.72734">
        <ele>366.84375</ele>
        <time>2012-06-07T20:51:28Z</time>
      </trkpt>
      <trkpt lat="44.52656" lon="2.72707">
        <ele>365.15234375</ele>
        <time>2012-06-07T20:51:48Z</time>
      </trkpt>
      <trkpt lat="44.52658" lon="2.72668">
        <ele>371.4765625</ele>
        <time>2012-06-07T20:52:08Z</time>
      </trkpt>
      <trkpt lat="44.52697" lon="2.72622">
        <ele>390.48046875</ele>
        <time>2012-06-07T20:52:28Z</time>
      </trkpt>
      <trkpt lat="44.52703" lon="2.72583">
        <ele>393.76171875</ele>
        <time>2012-06-07T20:52:48Z</time>
      </trkpt>
      <trkpt lat="44.52794" lon="2.72525">
        <ele>415.015625</ele>
        <time>2012-06-07T20:53:08Z</time>
      </trkpt>
      <trkpt lat="44.52837" lon="2.72537">
        <ele>430.46875</ele>
        <time>2012-06-07T20:53:28Z</time>
      </trkpt>
      <trkpt lat="44.52899" lon="2.72458">
        <ele>452.49609375</ele>
        <time>2012-06-07T20:53:48Z</time>
      </trkpt>
      <trkpt lat="44.52933" lon="2.72378">
        <ele>465.03125</ele>
        <time>2012-06-07T20:54:08Z</time>
      </trkpt>
      <trkpt lat="44.52951" lon="2.72223">
        <ele>477.4609375</ele>
        <time>2012-06-07T20:54:28Z</time>
      </trkpt>
      <trkpt lat="44.52911" lon="2.72147">
        <ele>483.890625</ele>
        <time>2012-06-07T20:54:48Z</time>
      </trkpt>
      <trkpt lat="44.52898" lon="2.72051">
        <ele>491.1953125</ele>
        <time>2012-06-07T20:55:08Z</time>
      </trkpt>
      <trkpt lat="44.52881" lon="2.72005">
        <ele>490.0625</ele>
        <time>2012-06-07T20:55:28Z</time>
      </trkpt>
      <trkpt lat="44.52875" lon="2.71893">
        <ele>491.2578125</ele>
        <time>2012-06-07T20:55:48Z</time>
      </trkpt>
      <trkpt lat="44.52916" lon="2.71826">
        <ele>494.546875</ele>
        <time>2012-06-07T20:56:08Z</time>
      </trkpt>
      <trkpt lat="44.52984" lon="2.71687">
        <ele>490.52734375</ele>
        <time>2012-06-07T20:56:28Z</time>
      </trkpt>
      <trkpt lat="44.53013" lon="2.71472">
        <ele>489.6484375</ele>
        <time>2012-06-07T20:56:48Z</time>
      </trkpt>
      <trkpt lat="44.5305" lon="2.7141">
        <ele>488.34375</ele>
        <time>2012-06-07T20:57:08Z</time>
      </trkpt>
      <trkpt lat="44.53089" lon="2.71265">
        <ele>484.8359375</ele>
        <time>2012-06-07T20:57:28Z</time>
      </trkpt>
      <trkpt lat="44.53139" lon="2.71242">
        <ele>478.15234375</ele>
        <time>2012-06-07T20:57:48Z</time>
      </trkpt>
      <trkpt lat="44.53159" lon="2.71188">
        <ele>477.19140625</ele>
        <time>2012-06-07T20:58:08Z</time>
      </trkpt>
      <trkpt lat="44.53185" lon="2.71176">
        <ele>476</ele>
        <time>2012-06-07T20:58:28Z</time>
      </trkpt>
      <trkpt lat="44.53209" lon="2.71147">
        <ele>478.48046875</ele>
        <time>2012-06-07T20:58:48Z</time>
      </trkpt>
      <trkpt lat="44.53231" lon="2.71156">
        <ele>478.3046875</ele>
        <time>2012-06-07T20:59:08Z</time>
      </trkpt>
      <trkpt lat="44.53248" lon="2.71095">
        <ele>482.234375</ele>
        <time>2012-06-07T20:59:28Z</time>
      </trkpt>
      <trkpt lat="44.53276" lon="2.71016">
        <ele>484.62109375</ele>
        <time>2012-06-07T20:59:48Z</time>
      </trkpt>
      <trkpt lat="44.53282" lon="2.70969">
        <ele>485</ele>
        <time>2012-06-07T21:00:08Z</time>
      </trkpt>
      <trkpt lat="44.53311" lon="2.70973">
        <ele>485.8828125</ele>
        <time>2012-06-07T21:00:28Z</time>
      </trkpt>
      <trkpt lat="44.53336" lon="2.71016">
        <ele>486.77734375</ele>
        <time>2012-06-07T21:00:48Z</time>
      </trkpt>
      <trkpt lat="44.53459" lon="2.71088">
        <ele>490.44140625</ele>
        <time>2012-06-07T21:01:08Z</time>
      </trkpt>
      <trkpt lat="44.53678" lon="2.71091">
        <ele>478.98046875</ele>
        <time>2012-06-07T21:01:28Z</time>
      </trkpt>
      <trkpt lat="44.53716" lon="2.7112">
        <ele>480.390625</ele>
        <time>2012-06-07T21:01:48Z</time>
      </trkpt>
      <trkpt lat="44.53774" lon="2.7112">
        <ele>483.19921875</ele>
        <time>2012-06-07T21:02:08Z</time>
      </trkpt>
      <trkpt lat="44.53845" lon="2.71053">
        <ele>485.76171875</ele>
        <time>2012-06-07T21:02:28Z</time>
      </trkpt>
      <trkpt lat="44.53938" lon="2.70945">
        <ele>479.52734375</ele>
        <time>2012-06-07T21:02:48Z</time>
      </trkpt>
      <trkpt lat="44.53955" lon="2.70847">
        <ele>468.1875</ele>
        <time>2012-06-07T21:03:08Z</time>
      </trkpt>
      <trkpt lat="44.53962" lon="2.70695">
        <ele>440.01171875</ele>
        <time>2012-06-07T21:03:28Z</time>
      </trkpt>
      <trkpt lat="44.53975" lon="2.70696">
        <ele>439.36328125</ele>
        <time>2012-06-07T21:03:48Z</time>
      </trkpt>
      <trkpt lat="44.53975" lon="2.70675">
        <ele>433.3125</ele>
        <time>2012-06-07T21:04:08Z</time>
      </trkpt>
      <trkpt lat="44.54079" lon="2.70585">
        <ele>394.34765625</ele>
        <time>2012-06-07T21:04:28Z</time>
      </trkpt>
      <trkpt lat="44.54092" lon="2.7056">
        <ele>390.25390625</ele>
        <time>2012-06-07T21:04:48Z</time>
      </trkpt>
      <trkpt lat="44.54119" lon="2.70555">
        <ele>386.8671875</ele>
        <time>2012-06-07T21:05:08Z</time>
      </trkpt>
      <trkpt lat="44.54134" lon="2.7052">
        <ele>382.9140625</ele>
        <time>2012-06-07T21:05:28Z</time>
      </trkpt>
      <trkpt lat="44.54132" lon="2.70478">
        <ele>379.76171875</ele>
        <time>2012-06-07T21:05:48Z</time>
      </trkpt>
      <trkpt lat="44.54152" lon="2.70376">
        <ele>375.8046875</ele>
        <time>2012-06-07T21:06:08Z</time>
      </trkpt>
      <trkpt lat="44.54007" lon="2.70369">
        <ele>363.84765625</ele>
        <time>2012-06-07T21:06:28Z</time>
      </trkpt>
      <trkpt lat="44.53968" lon="2.70345">
        <ele>361.5078125</ele>
        <time>2012-06-07T21:06:48Z</time>
      </trkpt>
      <trkpt lat="44.53941" lon="2.70302">
        <ele>361.37109375</ele>
        <time>2012-06-07T21:07:08Z</time>
      </trkpt>
      <trkpt lat="44.53947" lon="2.70236">
        <ele>361.75</ele>
        <time>2012-06-07T21:07:28Z</time>
      </trkpt>
      <trkpt lat="44.53934" lon="2.7021">
        <ele>363.875</ele>
        <time>2012-06-07T21:07:48Z</time>
      </trkpt>
      <trkpt lat="44.53857" lon="2.70116">
        <ele>367.1484375</ele>
        <time>2012-06-07T21:08:08Z</time>
      </trkpt>
      <trkpt lat="44.53822" lon="2.70062">
        <ele>365.03125</ele>
        <time>2012-06-07T21:08:28Z</time>
      </trkpt>
      <trkpt lat="44.54035" lon="2.69507">
        <ele>348.03515625</ele>
        <time>2012-06-07T21:08:48Z</time>
      </trkpt>
      <trkpt lat="44.54075" lon="2.69172">
        <ele>347.64453125</ele>
        <time>2012-06-07T21:09:08Z</time>
      </trkpt>
      <trkpt lat="44.54004" lon="2.69095">
        <ele>346</ele>
        <time>2012-06-07T21:09:28Z</time>
      </trkpt>
      <trkpt lat="44.53768" lon="2.68953">
        <ele>349.65234375</ele>
        <time>2012-06-07T21:09:48Z</time>
      </trkpt>
      <trkpt lat="44.53751" lon="2.68936">
        <ele>349.59375</ele>
        <time>2012-06-07T21:10:08Z</time>
      </trkpt>
      <trkpt lat="44.53777" lon="2.6891">
        <ele>349</ele>
        <time>2012-06-07T21:10:28Z</time>
      </trkpt>
      <trkpt lat="44.53869" lon="2.68759">
        <ele>348.00390625</ele>
        <time>2012-06-07T21:10:48Z</time>
      </trkpt>
      <trkpt lat="44.54027" lon="2.6864">
        <ele>348</ele>
        <time>2012-06-07T21:11:08Z</time>
      </trkpt>
      <trkpt lat="44.54095" lon="2.68538">
        <ele>346.13671875</ele>
        <time>2012-06-07T21:11:28Z</time>
      </trkpt>
      <trkpt lat="44.54237" lon="2.68553">
        <ele>340.30078125</ele>
        <time>2012-06-07T21:11:48Z</time>
      </trkpt>
      <trkpt lat="44.54261" lon="2.68523">
        <ele>337.98828125</ele>
        <time>2012-06-07T21:12:08Z</time>
      </trkpt>
      <trkpt lat="44.54327" lon="2.68253">
        <ele>324.9921875</ele>
        <time>2012-06-07T21:12:28Z</time>
      </trkpt>
      <trkpt lat="44.54318" lon="2.68202">
        <ele>322.43359375</ele>
        <time>2012-06-07T21:12:48Z</time>
      </trkpt>
      <trkpt lat="44.54327" lon="2.68148">
        <ele>320.2109375</ele>
        <time>2012-06-07T21:13:08Z</time>
      </trkpt>
      <trkpt lat="44.5427" lon="2.68076">
        <ele>325.05859375</ele>
        <time>2012-06-07T21:13:28Z</time>
      </trkpt>
      <trkpt lat="44.54276" lon="2.68048">
        <ele>330.19140625</ele>
        <time>2012-06-07T21:13:48Z</time>
      </trkpt>
      <trkpt lat="44.54342" lon="2.68056">
        <ele>322.5859375</ele>
        <time>2012-06-07T21:14:08Z</time>
      </trkpt>
      <trkpt lat="44.54422" lon="2.68174">
        <ele>319.97265625</ele>
        <time>2012-06-07T21:14:28Z</time>
      </trkpt>
      <trkpt lat="44.54547" lon="2.6816">
        <ele>332.65234375</ele>
        <time>2012-06-07T21:14:48Z</time>
      </trkpt>
      <trkpt lat="44.54625" lon="2.68181">
        <ele>336.953125</ele>
        <time>2012-06-07T21:15:08Z</time>
      </trkpt>
      <trkpt lat="44.54663" lon="2.6829">
        <ele>323.765625</ele>
        <time>2012-06-07T21:15:28Z</time>
      </trkpt>
      <trkpt lat="44.54715" lon="2.68371">
        <ele>329.00390625</ele>
        <time>2012-06-07T21:15:48Z</time>
      </trkpt>
      <trkpt lat="44.5473" lon="2.68436">
        <ele>327.1171875</ele>
        <time>2012-06-07T21:16:08Z</time>
      </trkpt>
      <trkpt lat="44.54774" lon="2.68543">
        <ele>333.5625</ele>
        <time>2012-06-07T21:16:28Z</time>
      </trkpt>
      <trkpt lat="44.54834" lon="2.68644">
        <ele>343.02734375</ele>
        <time>2012-06-07T21:16:48Z</time>
      </trkpt>
      <trkpt lat="44.54862" lon="2.68683">
        <ele>341.93359375</ele>
        <time>2012-06-07T21:17:08Z</time>
      </trkpt>
      <trkpt lat="44.54904" lon="2.68675">
        <ele>352.07421875</ele>
        <time>2012-06-07T21:17:28Z</time>
      </trkpt>
      <trkpt lat="44.54881" lon="2.68624">
        <ele>362.80078125</ele>
        <time>2012-06-07T21:17:48Z</time>
      </trkpt>
      <trkpt lat="44.54888" lon="2.68584">
        <ele>371.296875</ele>
        <time>2012-06-07T21:18:08Z</time>
      </trkpt>
      <trkpt lat="44.54916" lon="2.68546">
        <ele>366.90234375</ele>
        <time>2012-06-07T21:18:28Z</time>
      </trkpt>
      <trkpt lat="44.54914" lon="2.6846">
        <ele>363.81640625</ele>
        <time>2012-06-07T21:18:48Z</time>
      </trkpt>
      <trkpt lat="44.54893" lon="2.68415">
        <ele>370.56640625</ele>
        <time>2012-06-07T21:19:08Z</time>
      </trkpt>
      <trkpt lat="44.54887" lon="2.68218">
        <ele>343.171875</ele>
        <time>2012-06-07T21:19:28Z</time>
      </trkpt>
      <trkpt lat="44.54854" lon="2.68096">
        <ele>351.9609375</ele>
        <time>2012-06-07T21:19:48Z</time>
      </trkpt>
      <trkpt lat="44.54866" lon="2.67969">
        <ele>358.94921875</ele>
        <time>2012-06-07T21:20:08Z</time>
      </trkpt>
      <trkpt lat="44.54916" lon="2.67858">
        <ele>360.8359375</ele>
        <time>2012-06-07T21:20:28Z</time>
      </trkpt>
      <trkpt lat="44.55015" lon="2.67766">
        <ele>340.62109375</ele>
        <time>2012-06-07T21:20:48Z</time>
      </trkpt>
      <trkpt lat="44.55091" lon="2.67648">
        <ele>340.609375</ele>
        <time>2012-06-07T21:21:08Z</time>
      </trkpt>
      <trkpt lat="44.55096" lon="2.67589">
        <ele>352.60546875</ele>
        <time>2012-06-07T21:21:28Z</time>
      </trkpt>
      <trkpt lat="44.55127" lon="2.67521">
        <ele>354.98828125</ele>
        <time>2012-06-07T21:21:48Z</time>
      </trkpt>
      <trkpt lat="44.55228" lon="2.67392">
        <ele>342.1015625</ele>
        <time>2012-06-07T21:22:08Z</time>
      </trkpt>
      <trkpt lat="44.55244" lon="2.67327">
        <ele>326.51953125</ele>
        <time>2012-06-07T21:22:28Z</time>
      </trkpt>
      <trkpt lat="44.55247" lon="2.67207">
        <ele>312.3125</ele>
        <time>2012-06-07T21:22:48Z</time>
      </trkpt>
    </trkseg>
  </trk>
</gpx>